createdAt,value
2018-01-18T00:00:31.180Z,0
2018-01-18T00:02:32.671Z,0
2018-01-18T00:04:34.154Z,0
2018-01-18T00:06:35.642Z,0
2018-01-18T00:08:37.561Z,0
2018-01-18T00:10:39.007Z,0
2018-01-18T00:12:40.882Z,0
2018-01-18T00:14:42.809Z,0
2018-01-18T00:16:44.732Z,0
2018-01-18T00:18:46.246Z,0
2018-01-18T00:20:47.709Z,0
2018-01-18T00:23:32.280Z,0
2018-01-18T00:25:33.830Z,0
2018-01-18T00:27:35.238Z,0
2018-01-18T00:29:36.639Z,0
2018-01-18T00:31:38.044Z,0
2018-01-18T00:33:39.753Z,0
2018-01-18T00:35:41.153Z,0
2018-01-18T00:37:42.928Z,0
2018-01-18T00:39:44.448Z,0
2018-01-18T00:42:26.997Z,0
2018-01-18T00:44:28.416Z,0
2018-01-18T00:46:29.803Z,0
2018-01-18T00:48:31.563Z,0
2018-01-18T00:50:34.773Z,0
2018-01-18T00:52:36.973Z,0
2018-01-18T00:54:38.426Z,0
2018-01-18T00:56:40.526Z,0
2018-01-18T00:58:42.451Z,0
2018-01-18T01:00:44.693Z,0
2018-01-18T01:03:30.243Z,0
2018-01-18T01:05:31.446Z,0
2018-01-18T01:07:32.966Z,0
2018-01-18T01:09:34.365Z,0
2018-01-18T01:11:35.820Z,0
2018-01-18T01:13:37.676Z,0
2018-01-18T01:15:39.188Z,0
2018-01-18T01:17:40.711Z,0
2018-01-18T01:19:42.823Z,0
2018-01-18T01:21:44.346Z,0
2018-01-18T01:23:45.873Z,0
2018-01-18T01:25:47.678Z,0
2018-01-18T01:27:49.140Z,0
2018-01-18T01:29:50.579Z,0
2018-01-18T01:31:52.058Z,0
2018-01-18T01:33:53.552Z,0
2018-01-18T01:35:55.188Z,0
2018-01-18T01:37:56.958Z,0
2018-01-18T01:39:58.500Z,0
2018-01-18T01:42:00.205Z,0
2018-01-18T01:44:02.374Z,0
2018-01-18T01:46:04.038Z,0
2018-01-18T01:48:05.540Z,0
2018-01-18T01:50:07.307Z,0
2018-01-18T01:52:08.831Z,0
2018-01-18T01:54:10.342Z,0
2018-01-18T01:56:12.408Z,0
2018-01-18T01:58:14.761Z,0
2018-01-18T02:00:16.312Z,0
2018-01-18T02:02:18.484Z,0
2018-01-18T02:04:19.942Z,0
2018-01-18T02:06:21.570Z,0
2018-01-18T02:08:23.705Z,0
2018-01-18T02:10:25.260Z,0
2018-01-18T02:12:26.779Z,0
2018-01-18T02:14:29.157Z,0
2018-01-18T02:16:31.478Z,0
2018-01-18T02:18:33.029Z,0
2018-01-18T02:20:34.849Z,0
2018-01-18T02:23:21.400Z,0
2018-01-18T02:25:22.645Z,0
2018-01-18T02:27:24.990Z,0
2018-01-18T02:29:26.377Z,0
2018-01-18T02:31:27.766Z,0
2018-01-18T02:33:29.171Z,0
2018-01-18T02:35:30.574Z,0
2018-01-18T02:37:31.973Z,0
2018-01-18T02:39:34.165Z,0
2018-01-18T02:41:36.169Z,0
2018-01-18T02:43:38.072Z,0
2018-01-18T02:45:39.676Z,0
2018-01-18T02:47:41.470Z,0
2018-01-18T02:49:43.665Z,0
2018-01-18T02:51:45.665Z,0
2018-01-18T02:53:47.118Z,0
2018-01-18T02:55:48.842Z,0
2018-01-18T02:57:50.283Z,0
2018-01-18T02:59:51.821Z,0
2018-01-18T03:02:38.019Z,0
2018-01-18T03:04:39.696Z,0
2018-01-18T03:06:41.112Z,0
2018-01-18T03:08:43.307Z,0
2018-01-18T03:10:44.736Z,0
2018-01-18T03:12:46.214Z,0
2018-01-18T03:14:48.383Z,0
2018-01-18T03:16:49.894Z,0
2018-01-18T03:18:51.681Z,0
2018-01-18T03:20:53.202Z,0
2018-01-18T03:22:54.677Z,0
2018-01-18T03:24:56.078Z,0
2018-01-18T03:26:57.558Z,0
2018-01-18T03:28:59.322Z,0
2018-01-18T03:31:00.867Z,0
2018-01-18T03:33:02.345Z,0
2018-01-18T03:35:03.834Z,0
2018-01-18T03:37:05.306Z,0
2018-01-18T03:39:07.500Z,0
2018-01-18T03:41:09.049Z,0
2018-01-18T03:43:10.776Z,0
2018-01-18T03:45:12.274Z,0
2018-01-18T03:47:13.747Z,0
2018-01-18T03:49:15.205Z,0
2018-01-18T03:51:17.025Z,0
2018-01-18T03:53:18.513Z,0
2018-01-18T03:55:20.716Z,0
2018-01-18T03:57:23.558Z,0
2018-01-18T03:59:25.089Z,0
2018-01-18T04:01:26.667Z,0
2018-01-18T04:03:28.742Z,0
2018-01-18T04:05:30.809Z,0
2018-01-18T04:07:32.633Z,0
2018-01-18T04:09:34.090Z,0
2018-01-18T04:11:35.558Z,0
2018-01-18T04:13:36.968Z,0
2018-01-18T04:15:38.465Z,0
2018-01-18T04:17:40.602Z,0
2018-01-18T04:19:42.093Z,0
2018-01-18T04:21:43.809Z,0
2018-01-18T04:23:45.312Z,0
2018-01-18T04:25:46.941Z,0
2018-01-18T04:27:48.429Z,0
2018-01-18T04:29:49.910Z,0
2018-01-18T04:31:51.316Z,0
2018-01-18T04:33:52.724Z,0
2018-01-18T04:35:54.424Z,0
2018-01-18T04:37:55.833Z,0
2018-01-18T04:39:57.773Z,0
2018-01-18T04:42:39.377Z,0
2018-01-18T04:44:42.673Z,0
2018-01-18T04:46:44.042Z,0
2018-01-18T04:48:45.451Z,0
2018-01-18T04:50:46.899Z,0
2018-01-18T04:52:48.613Z,0
2018-01-18T04:54:50.516Z,0
2018-01-18T04:56:52.035Z,0
2018-01-18T04:58:53.426Z,0
2018-01-18T05:00:55.483Z,0
2018-01-18T05:02:57.510Z,0
2018-01-18T05:04:58.997Z,0
2018-01-18T05:07:00.598Z,0
2018-01-18T05:09:02.682Z,0
2018-01-18T05:11:04.652Z,0
2018-01-18T05:13:06.219Z,0
2018-01-18T05:15:08.219Z,0
2018-01-18T05:17:10.205Z,0
2018-01-18T05:19:12.079Z,0
2018-01-18T05:21:14.036Z,0
2018-01-18T05:23:15.784Z,0
2018-01-18T05:25:17.760Z,0
2018-01-18T05:27:19.274Z,0
2018-01-18T05:29:20.681Z,0
2018-01-18T05:31:22.172Z,0
2018-01-18T05:33:24.046Z,0
2018-01-18T05:35:25.574Z,0
2018-01-18T05:37:27.130Z,0
2018-01-18T05:39:29.215Z,0
2018-01-18T05:41:31.161Z,0
2018-01-18T05:43:32.695Z,0
2018-01-18T05:45:34.153Z,0
2018-01-18T05:47:36.199Z,0
2018-01-18T05:49:38.398Z,0
2018-01-18T05:51:39.775Z,0
2018-01-18T05:53:41.177Z,0
2018-01-18T05:55:42.613Z,0
2018-01-18T05:57:44.030Z,0
2018-01-18T05:59:45.600Z,0
2018-01-18T06:01:47.597Z,0
2018-01-18T06:03:49.340Z,0
2018-01-18T06:05:50.826Z,0
2018-01-18T06:07:52.677Z,0
2018-01-18T06:09:54.181Z,0
2018-01-18T06:11:55.671Z,0
2018-01-18T06:13:57.154Z,0
2018-01-18T06:15:58.639Z,0
2018-01-18T06:18:00.088Z,0
2018-01-18T06:20:01.565Z,0
2018-01-18T06:22:03.710Z,0
2018-01-18T06:24:05.151Z,0
2018-01-18T06:26:06.606Z,0
2018-01-18T06:28:08.908Z,0
2018-01-18T06:30:10.431Z,0
2018-01-18T06:32:12.765Z,0
2018-01-18T06:34:14.866Z,0
2018-01-18T06:36:17.021Z,0
2018-01-18T06:38:19.150Z,0
2018-01-18T06:40:21.026Z,0
2018-01-18T06:42:22.613Z,0
2018-01-18T06:44:24.098Z,0
2018-01-18T06:46:25.577Z,0
2018-01-18T06:48:27.177Z,0
2018-01-18T06:50:28.652Z,0
2018-01-18T06:52:30.187Z,0
2018-01-18T06:54:31.612Z,0
2018-01-18T06:56:33.069Z,0
2018-01-18T06:58:34.552Z,0
2018-01-18T07:00:36.029Z,0
2018-01-18T07:02:37.566Z,0
2018-01-18T07:04:39.098Z,0
2018-01-18T07:06:40.600Z,0
2018-01-18T07:08:42.120Z,0
2018-01-18T07:10:43.643Z,0
2018-01-18T07:12:45.793Z,4
2018-01-18T07:14:47.313Z,4
2018-01-18T07:16:48.790Z,0
2018-01-18T07:18:50.282Z,0
2018-01-18T07:20:51.820Z,0
2018-01-18T07:23:33.581Z,4
2018-01-18T07:25:35.117Z,4
2018-01-18T07:27:38.226Z,4
2018-01-18T07:29:40.560Z,8
2018-01-18T07:31:41.900Z,8
2018-01-18T07:33:43.565Z,4
2018-01-18T07:35:45.010Z,4
2018-01-18T07:37:46.607Z,16
2018-01-18T07:39:48.199Z,32
2018-01-18T07:41:49.828Z,32
2018-01-18T07:43:51.318Z,28
2018-01-18T07:45:52.836Z,20
2018-01-18T07:47:54.505Z,16
2018-01-18T07:49:55.979Z,48
2018-01-18T07:51:57.516Z,72
2018-01-18T07:53:59.394Z,76
2018-01-18T07:56:00.918Z,68
2018-01-18T07:58:02.392Z,64
2018-01-18T08:00:03.969Z,60
2018-01-18T08:02:05.545Z,52
2018-01-18T08:04:07.889Z,76
2018-01-18T08:06:10.171Z,100
2018-01-18T08:08:11.770Z,120
2018-01-18T08:10:13.731Z,100
2018-01-18T08:12:16.251Z,104
2018-01-18T08:14:18.613Z,116
2018-01-18T08:16:20.304Z,148
2018-01-18T08:18:22.765Z,200
2018-01-18T08:20:24.810Z,184
2018-01-18T08:22:26.428Z,172
2018-01-18T08:24:28.659Z,112
2018-01-18T08:26:30.802Z,120
2018-01-18T08:28:32.448Z,88
2018-01-18T08:30:34.086Z,164
2018-01-18T08:32:35.781Z,236
2018-01-18T08:34:37.554Z,108
2018-01-18T08:36:39.684Z,96
2018-01-18T08:38:41.451Z,228
2018-01-18T08:40:43.163Z,212
2018-01-18T08:42:44.984Z,208
2018-01-18T08:44:46.703Z,172
2018-01-18T08:46:48.385Z,176
2018-01-18T08:48:49.911Z,160
2018-01-18T08:50:51.419Z,104
2018-01-18T08:52:52.959Z,208
2018-01-18T08:54:54.768Z,496
2018-01-18T08:56:56.650Z,780
2018-01-18T08:58:58.330Z,724
2018-01-18T09:01:00.012Z,1600
2018-01-18T09:03:01.596Z,876
2018-01-18T09:05:03.706Z,548
2018-01-18T09:07:05.515Z,340
2018-01-18T09:09:07.942Z,276
2018-01-18T09:11:09.654Z,216
2018-01-18T09:13:11.242Z,228
2018-01-18T09:15:13.506Z,204
2018-01-18T09:17:15.174Z,116
2018-01-18T09:19:16.837Z,132
2018-01-18T09:21:18.947Z,328
2018-01-18T09:23:20.540Z,424
2018-01-18T09:25:22.082Z,384
2018-01-18T09:27:23.616Z,516
2018-01-18T09:29:25.129Z,288
2018-01-18T09:31:26.630Z,412
2018-01-18T09:33:28.310Z,388
2018-01-18T09:35:30.174Z,452
2018-01-18T09:37:32.006Z,272
2018-01-18T09:39:33.855Z,232
2018-01-18T09:41:35.653Z,264
2018-01-18T09:43:37.380Z,200
2018-01-18T09:45:39.240Z,272
2018-01-18T09:47:41.029Z,296
2018-01-18T09:49:42.792Z,184
2018-01-18T09:51:44.564Z,256
2018-01-18T09:53:46.067Z,228
2018-01-18T09:55:47.541Z,176
2018-01-18T09:57:49.033Z,160
2018-01-18T09:59:50.539Z,168
2018-01-18T10:01:52.128Z,252
2018-01-18T10:03:54.046Z,204
2018-01-18T10:05:55.665Z,228
2018-01-18T10:07:57.563Z,544
2018-01-18T10:09:59.436Z,556
2018-01-18T10:12:01.194Z,304
2018-01-18T10:14:02.645Z,364
2018-01-18T10:16:04.164Z,244
2018-01-18T10:18:05.640Z,332
2018-01-18T10:20:07.533Z,284
2018-01-18T10:22:09.230Z,252
2018-01-18T10:24:11.053Z,244
2018-01-18T10:26:12.835Z,196
2018-01-18T10:28:14.613Z,188
2018-01-18T10:30:16.178Z,176
2018-01-18T10:32:17.862Z,172
2018-01-18T10:34:19.509Z,176
2018-01-18T10:36:21.131Z,176
2018-01-18T10:38:22.905Z,180
2018-01-18T10:40:24.700Z,192
2018-01-18T10:42:26.396Z,160
2018-01-18T10:44:28.096Z,168
2018-01-18T10:46:29.896Z,176
2018-01-18T10:48:31.613Z,176
2018-01-18T10:50:33.359Z,172
2018-01-18T10:52:35.107Z,188
2018-01-18T10:54:36.642Z,148
2018-01-18T10:56:38.474Z,180
2018-01-18T10:58:40.341Z,168
2018-01-18T11:00:42.137Z,144
2018-01-18T11:02:43.883Z,168
2018-01-18T11:04:45.630Z,144
2018-01-18T11:06:47.357Z,200
2018-01-18T11:08:49.162Z,192
2018-01-18T11:10:50.934Z,180
2018-01-18T11:12:52.753Z,172
2018-01-18T11:14:54.382Z,132
2018-01-18T11:16:55.869Z,168
2018-01-18T11:18:57.724Z,188
2018-01-18T11:20:59.448Z,196
2018-01-18T11:23:00.910Z,176
2018-01-18T11:25:02.466Z,188
2018-01-18T11:27:04.172Z,188
2018-01-18T11:29:05.759Z,224
2018-01-18T11:31:07.258Z,224
2018-01-18T11:33:08.776Z,204
2018-01-18T11:35:10.249Z,280
2018-01-18T11:37:11.746Z,356
2018-01-18T11:39:13.276Z,332
2018-01-18T11:41:14.762Z,428
2018-01-18T11:43:16.241Z,428
2018-01-18T11:45:17.719Z,456
2018-01-18T11:47:19.152Z,392
2018-01-18T11:49:20.626Z,384
2018-01-18T11:51:22.280Z,360
2018-01-18T11:53:23.935Z,424
2018-01-18T11:55:25.421Z,420
2018-01-18T11:57:26.898Z,416
2018-01-18T11:59:28.418Z,496
2018-01-18T12:01:29.884Z,412
2018-01-18T12:03:31.353Z,476
2018-01-18T12:05:32.818Z,676
2018-01-18T12:07:34.297Z,492
2018-01-18T12:09:35.785Z,384
2018-01-18T12:11:37.275Z,452
2018-01-18T12:13:38.721Z,324
2018-01-18T12:15:40.205Z,444
2018-01-18T12:17:41.855Z,428
2018-01-18T12:19:43.358Z,636
2018-01-18T12:21:45.046Z,524
2018-01-18T12:23:46.545Z,420
2018-01-18T12:25:48.085Z,432
2018-01-18T12:27:49.672Z,408
2018-01-18T12:29:51.324Z,324
2018-01-18T12:31:52.876Z,376
2018-01-18T12:33:54.387Z,392
2018-01-18T12:35:55.969Z,384
2018-01-18T12:37:57.477Z,376
2018-01-18T12:39:58.974Z,424
2018-01-18T12:42:00.520Z,376
2018-01-18T12:44:02.074Z,476
2018-01-18T12:46:03.618Z,500
2018-01-18T12:48:05.098Z,392
2018-01-18T12:50:06.612Z,428
2018-01-18T12:52:08.090Z,580
2018-01-18T12:54:09.644Z,712
2018-01-18T12:56:11.176Z,480
2018-01-18T12:58:12.810Z,488
2018-01-18T13:00:14.570Z,408
2018-01-18T13:02:16.744Z,440
2018-01-18T13:04:18.282Z,424
2018-01-18T13:06:19.839Z,452
2018-01-18T13:08:21.538Z,340
2018-01-18T13:10:23.358Z,360
2018-01-18T13:12:24.800Z,268
2018-01-18T13:14:26.489Z,224
2018-01-18T13:16:27.936Z,316
2018-01-18T13:18:29.404Z,384
2018-01-18T13:20:30.863Z,540
2018-01-18T13:22:32.479Z,796
2018-01-18T13:24:34.002Z,856
2018-01-18T13:26:35.556Z,776
2018-01-18T13:28:37.045Z,684
2018-01-18T13:30:38.546Z,428
2018-01-18T13:32:40.091Z,424
2018-01-18T13:34:41.569Z,348
2018-01-18T13:36:43.033Z,360
2018-01-18T13:38:44.567Z,360
2018-01-18T13:40:46.048Z,516
2018-01-18T13:42:47.552Z,508
2018-01-18T13:44:49.017Z,392
2018-01-18T13:46:50.535Z,292
2018-01-18T13:48:52.014Z,296
2018-01-18T13:50:53.465Z,404
2018-01-18T13:52:55.063Z,608
2018-01-18T13:54:56.508Z,568
2018-01-18T13:56:57.949Z,552
2018-01-18T13:58:59.432Z,532
2018-01-18T14:01:00.930Z,504
2018-01-18T14:03:02.450Z,440
2018-01-18T14:05:04.124Z,412
2018-01-18T14:07:05.836Z,352
2018-01-18T14:09:07.458Z,348
2018-01-18T14:11:09.391Z,320
2018-01-18T14:13:10.945Z,320
2018-01-18T14:15:12.637Z,300
2018-01-18T14:17:14.135Z,340
2018-01-18T14:19:15.689Z,320
2018-01-18T14:21:17.366Z,308
2018-01-18T14:23:18.995Z,428
2018-01-18T14:25:20.760Z,572
2018-01-18T14:27:22.582Z,640
2018-01-18T14:29:24.454Z,588
2018-01-18T14:31:26.285Z,528
2018-01-18T14:33:28.209Z,496
2018-01-18T14:35:30.043Z,480
2018-01-18T14:37:31.643Z,452
2018-01-18T14:39:33.263Z,356
2018-01-18T14:41:34.897Z,300
2018-01-18T14:44:17.303Z,240
2018-01-18T14:46:18.730Z,280
2018-01-18T14:48:20.161Z,180
2018-01-18T14:50:21.624Z,164
2018-01-18T14:52:23.594Z,172
2018-01-18T14:54:25.249Z,164
2018-01-18T14:56:27.178Z,148
2018-01-18T14:58:28.747Z,140
2018-01-18T15:00:30.452Z,164
2018-01-18T15:02:31.858Z,140
2018-01-18T15:04:33.259Z,128
2018-01-18T15:06:34.738Z,100
2018-01-18T15:08:36.398Z,72
2018-01-18T15:10:38.221Z,60
2018-01-18T15:12:40.232Z,52
2018-01-18T15:14:42.089Z,44
2018-01-18T15:16:43.720Z,80
2018-01-18T15:18:45.491Z,80
2018-01-18T15:20:47.012Z,72
2018-01-18T15:22:48.860Z,104
2018-01-18T15:24:50.611Z,112
2018-01-18T15:26:52.249Z,112
2018-01-18T15:28:54.199Z,100
2018-01-18T15:30:56.452Z,92
2018-01-18T15:32:58.120Z,88
2018-01-18T15:34:59.787Z,80
2018-01-18T15:37:01.380Z,68
2018-01-18T15:39:02.942Z,60
2018-01-18T15:41:04.471Z,48
2018-01-18T15:43:05.985Z,32
2018-01-18T15:45:07.519Z,16
2018-01-18T15:47:09.064Z,16
2018-01-18T15:49:10.791Z,20
2018-01-18T15:51:12.335Z,16
2018-01-18T15:53:13.860Z,20
2018-01-18T15:55:15.456Z,16
2018-01-18T15:57:16.989Z,12
2018-01-18T15:59:18.676Z,8
2018-01-18T16:01:20.288Z,8
2018-01-18T16:03:21.794Z,8
2018-01-18T16:05:23.310Z,4
2018-01-18T16:07:25.091Z,0
2018-01-18T16:09:26.573Z,0
2018-01-18T16:11:28.201Z,4
2018-01-18T16:13:29.756Z,0
2018-01-18T16:15:31.344Z,4
2018-01-18T16:17:32.871Z,4
2018-01-18T16:19:34.516Z,0
2018-01-18T16:21:36.035Z,0
2018-01-18T16:23:37.470Z,0
2018-01-18T16:25:38.924Z,0
2018-01-18T16:27:40.440Z,0
2018-01-18T16:29:42.787Z,0
2018-01-18T16:31:45.196Z,0
2018-01-18T16:33:46.806Z,0
2018-01-18T16:35:48.748Z,0
2018-01-18T16:37:50.368Z,0
2018-01-18T16:39:52.041Z,0
2018-01-18T16:41:53.759Z,0
2018-01-18T16:43:55.209Z,0
2018-01-18T16:45:56.725Z,0
2018-01-18T16:47:58.369Z,0
2018-01-18T16:49:59.932Z,0
2018-01-18T16:52:01.576Z,0
2018-01-18T16:54:03.052Z,0
2018-01-18T16:56:04.540Z,0
2018-01-18T16:58:06.065Z,0
2018-01-18T17:00:08.533Z,0
2018-01-18T17:02:10.608Z,0
2018-01-18T17:04:12.113Z,0
2018-01-18T17:06:13.577Z,0
2018-01-18T17:08:15.257Z,0
2018-01-18T17:10:16.994Z,0
2018-01-18T17:12:18.467Z,0
2018-01-18T17:14:20.146Z,0
2018-01-18T17:16:21.826Z,0
2018-01-18T17:18:24.639Z,0
2018-01-18T17:20:26.534Z,0
2018-01-18T17:22:28.113Z,0
2018-01-18T17:24:29.582Z,0
2018-01-18T17:26:31.609Z,0
2018-01-18T17:28:33.252Z,0
2018-01-18T17:30:35.226Z,0
2018-01-18T17:32:36.940Z,0
2018-01-18T17:34:38.870Z,0
2018-01-18T17:36:40.790Z,0
2018-01-18T17:38:42.640Z,0
2018-01-18T17:40:44.338Z,0
2018-01-18T17:42:46.187Z,0
2018-01-18T17:44:47.694Z,0
2018-01-18T17:46:49.205Z,0
2018-01-18T17:48:50.697Z,0
2018-01-18T17:50:52.360Z,0
2018-01-18T17:52:53.986Z,0
2018-01-18T17:54:55.742Z,0
2018-01-18T17:56:57.267Z,0
2018-01-18T17:58:58.801Z,0
2018-01-18T18:01:00.522Z,0
2018-01-18T18:03:02.261Z,0
2018-01-18T18:05:03.691Z,0
2018-01-18T18:07:05.332Z,0
2018-01-18T18:09:06.842Z,0
2018-01-18T18:11:08.739Z,0
2018-01-18T18:13:10.243Z,0
2018-01-18T18:15:11.765Z,0
2018-01-18T18:17:13.254Z,0
2018-01-18T18:19:14.737Z,0
2018-01-18T18:21:16.478Z,0
2018-01-18T18:23:18.122Z,0
2018-01-18T18:25:19.929Z,0
2018-01-18T18:27:21.385Z,0
2018-01-18T18:29:22.878Z,0
2018-01-18T18:31:24.378Z,0
2018-01-18T18:33:26.164Z,0
2018-01-18T18:35:27.800Z,0
2018-01-18T18:37:29.415Z,0
2018-01-18T18:39:31.200Z,0
2018-01-18T18:41:33.037Z,0
2018-01-18T18:43:34.776Z,0
2018-01-18T18:45:36.272Z,0
2018-01-18T18:47:37.788Z,0
2018-01-18T18:49:39.307Z,0
2018-01-18T18:51:41.007Z,0
2018-01-18T18:53:42.776Z,0
2018-01-18T18:55:44.618Z,0
2018-01-18T18:57:46.212Z,0
2018-01-18T18:59:47.954Z,0
2018-01-18T19:01:49.502Z,0
2018-01-18T19:03:50.983Z,0
2018-01-18T19:05:52.514Z,0
2018-01-18T19:07:54.026Z,0
2018-01-18T19:09:55.744Z,0
2018-01-18T19:11:57.829Z,0
2018-01-18T19:13:59.705Z,0
2018-01-18T19:16:42.595Z,0
2018-01-18T19:18:43.967Z,0
2018-01-18T19:20:45.371Z,0
2018-01-18T19:22:46.773Z,0
2018-01-18T19:24:48.866Z,0
2018-01-18T19:26:50.422Z,0
2018-01-18T19:28:52.117Z,0
2018-01-18T19:30:53.856Z,0
2018-01-18T19:32:55.773Z,0
2018-01-18T19:35:39.683Z,0
2018-01-18T19:37:41.222Z,0
2018-01-18T19:39:42.595Z,0
2018-01-18T19:41:44.000Z,0
2018-01-18T19:43:45.403Z,0
2018-01-18T19:45:46.804Z,0
2018-01-18T19:47:48.213Z,0
2018-01-18T19:49:49.720Z,0
2018-01-18T19:51:51.361Z,0
2018-01-18T19:54:33.787Z,0
2018-01-18T19:56:35.192Z,0
2018-01-18T19:58:36.616Z,0
2018-01-18T20:00:38.007Z,0
2018-01-18T20:02:39.438Z,0
2018-01-18T20:04:40.937Z,0
2018-01-18T20:06:42.468Z,0
2018-01-18T20:08:44.189Z,0
2018-01-18T20:10:46.002Z,0
2018-01-18T20:12:48.607Z,0
2018-01-18T20:14:50.361Z,0
2018-01-18T20:16:52.173Z,0
2018-01-18T20:18:53.921Z,0
2018-01-18T20:20:55.440Z,0
2018-01-18T20:22:57.075Z,0
2018-01-18T20:24:58.831Z,0
2018-01-18T20:27:00.403Z,0
2018-01-18T20:29:02.566Z,0
2018-01-18T20:31:04.073Z,0
2018-01-18T20:33:46.976Z,0
2018-01-18T20:35:48.352Z,0
2018-01-18T20:37:51.539Z,0
2018-01-18T20:39:52.902Z,0
2018-01-18T20:41:54.448Z,0
2018-01-18T20:43:55.922Z,0
2018-01-18T20:46:38.308Z,0
2018-01-18T20:48:39.882Z,0
2018-01-18T20:50:42.240Z,0
2018-01-18T20:53:24.883Z,0
2018-01-18T20:55:26.276Z,0
2018-01-18T20:57:27.677Z,0
2018-01-18T20:59:30.797Z,0
2018-01-18T21:01:32.902Z,0
2018-01-18T21:03:35.067Z,0
2018-01-18T21:05:36.613Z,0
2018-01-18T21:07:38.366Z,0
2018-01-18T21:09:40.089Z,0
2018-01-18T21:12:23.612Z,0
2018-01-18T21:14:25.448Z,0
2018-01-18T21:16:27.888Z,0
2018-01-18T21:18:29.301Z,0
2018-01-18T21:20:30.691Z,0
2018-01-18T21:23:14.315Z,0
2018-01-18T21:25:15.712Z,0
2018-01-18T21:27:18.064Z,0
2018-01-18T21:29:19.885Z,0
2018-01-18T21:32:02.913Z,0
2018-01-18T21:34:04.544Z,0
2018-01-18T21:36:06.990Z,0
2018-01-18T21:38:08.154Z,0
2018-01-18T21:40:09.588Z,0
2018-01-18T21:42:11.030Z,0
2018-01-18T21:44:12.511Z,0
2018-01-18T21:46:55.978Z,0
2018-01-18T21:48:57.960Z,0
2018-01-18T21:51:41.321Z,0
2018-01-18T21:53:42.706Z,0
2018-01-18T21:55:44.113Z,0
2018-01-18T21:57:45.513Z,0
2018-01-18T21:59:49.014Z,0
2018-01-18T22:01:50.470Z,0
2018-01-18T22:03:52.035Z,0
2018-01-18T22:06:35.117Z,0
2018-01-18T22:08:36.518Z,0
2018-01-18T22:10:38.866Z,0
2018-01-18T22:12:40.550Z,0
2018-01-18T22:14:42.925Z,0
2018-01-18T22:16:44.333Z,0
2018-01-18T22:18:45.826Z,0
2018-01-18T22:20:47.929Z,0
2018-01-18T22:22:49.727Z,0
2018-01-18T22:25:31.334Z,0
2018-01-18T22:27:33.314Z,0
2018-01-18T22:29:35.067Z,0
2018-01-18T22:31:36.582Z,0
2018-01-18T22:33:37.979Z,0
2018-01-18T22:35:39.412Z,0
2018-01-18T22:37:40.871Z,0
2018-01-18T22:39:42.488Z,0
2018-01-18T22:41:44.267Z,0
2018-01-18T22:43:45.706Z,0
2018-01-18T22:46:28.535Z,0
2018-01-18T22:48:29.934Z,0
2018-01-18T22:50:32.339Z,0
2018-01-18T22:52:34.183Z,0
2018-01-18T22:54:35.885Z,0
2018-01-18T22:56:37.320Z,0
2018-01-18T22:58:38.757Z,0
2018-01-18T23:00:40.859Z,0
2018-01-18T23:02:42.681Z,0
2018-01-18T23:05:25.592Z,0
2018-01-18T23:07:27.783Z,0
2018-01-18T23:09:29.102Z,0
2018-01-18T23:11:30.505Z,0
2018-01-18T23:13:31.932Z,0
2018-01-18T23:15:33.967Z,0
2018-01-18T23:17:36.123Z,0
2018-01-18T23:19:37.549Z,0
2018-01-18T23:21:39.558Z,0
2018-01-18T23:23:40.961Z,0
2018-01-18T23:26:24.087Z,0
2018-01-18T23:28:25.478Z,0
2018-01-18T23:30:28.182Z,0
2018-01-18T23:32:29.925Z,0
2018-01-18T23:34:31.931Z,0
2018-01-18T23:36:33.431Z,0
2018-01-18T23:38:34.846Z,0
2018-01-18T23:40:36.373Z,0
2018-01-18T23:42:37.864Z,0
2018-01-18T23:44:39.268Z,0
2018-01-18T23:47:21.636Z,0
2018-01-18T23:49:23.470Z,0
2018-01-18T23:51:24.917Z,0
2018-01-18T23:53:26.320Z,0
2018-01-18T23:55:28.255Z,0
2018-01-18T23:57:29.774Z,0
2018-01-18T23:59:31.485Z,0
